Time;durP1;ratioP1;P1;durP2;ratioP2;P2;SDS_P1;SDS_P2;PMS_P1;PMS_P2;Temp;Humidity;BMP_temperature;BMP_pressure;BME280_temperature;BME280_humidity;BME280_pressure;Samples;Min_cycle;Max_cycle;Signal;HPM_P1;HPM_P2
2022/01/10 00:00:34;;;;;;;3.50;2.73;;;;;;;1.86;100.00;94555.31;5093669;28;20176;-68
2022/01/10 00:03:01;;;;;;;4.27;2.80;;;;;;;1.85;100.00;94564.53;5109776;28;20196;-68
2022/01/10 00:05:27;;;;;;;5.30;2.80;;;;;;;1.82;100.00;94559.88;5110347;28;20203;-67
2022/01/10 00:07:52;;;;;;;4.43;2.97;;;;;;;1.82;100.00;94559.88;5093580;28;20280;-67
2022/01/10 00:10:18;;;;;;;4.03;2.90;;;;;;;1.82;100.00;94564.53;5092950;28;20214;-68
2022/01/10 00:12:44;;;;;;;4.07;3.13;;;;;;;1.81;100.00;94563.72;5093199;28;20204;-69
2022/01/10 00:15:12;;;;;;;3.60;2.70;;;;;;;1.81;100.00;94563.72;5093167;28;20554;-63
2022/01/10 00:17:38;;;;;;;6.07;2.87;;;;;;;1.80;100.00;94551.44;5093079;28;20202;-67
2022/01/10 00:20:08;;;;;;;3.93;2.73;;;;;;;1.79;100.00;94559.88;5109979;28;20685;-67
2022/01/10 00:22:35;;;;;;;4.73;2.70;;;;;;;1.78;100.00;94558.31;5110206;28;20204;-66
2022/01/10 00:25:00;;;;;;;4.07;3.10;;;;;;;1.79;100.00;94555.25;5093125;28;20210;-67
2022/01/10 00:27:26;;;;;;;4.07;2.80;;;;;;;1.79;100.00;94555.25;5093020;28;20204;-67
2022/01/10 00:29:51;;;;;;;4.53;2.63;;;;;;;1.78;100.00;94555.63;5093147;28;20208;-67
2022/01/10 00:32:17;;;;;;;4.63;3.03;;;;;;;1.78;100.00;94558.31;5093232;28;20203;-66
2022/01/10 00:34:43;;;;;;;7.80;3.20;;;;;;;1.75;100.00;94559.81;5109626;28;20298;-63
2022/01/10 00:37:08;;;;;;;6.03;3.37;;;;;;;1.75;100.00;94554.44;5109844;28;20236;-63
2022/01/10 00:39:33;;;;;;;3.97;2.70;;;;;;;1.74;100.00;94552.88;5109966;28;20212;-63
2022/01/10 00:41:59;;;;;;;6.10;3.20;;;;;;;1.73;100.00;94540.59;5109917;28;20238;-66
2022/01/10 00:44:27;;;;;;;4.00;2.97;;;;;;;1.74;100.00;94542.13;5109780;28;20235;-63
2022/01/10 00:46:53;;;;;;;4.20;2.80;;;;;;;1.72;100.00;94547.13;5092674;28;20207;-63
2022/01/10 00:49:18;;;;;;;4.97;3.37;;;;;;;1.66;100.00;94545.88;5109401;28;20223;-68
2022/01/10 00:51:44;;;;;;;5.33;3.23;;;;;;;1.62;100.00;94547.75;5093383;28;20204;-71
2022/01/10 00:54:09;;;;;;;3.53;2.83;;;;;;;1.60;100.00;94555.41;5096041;28;20329;-65
2022/01/10 00:56:34;;;;;;;4.93;2.93;;;;;;;1.62;100.00;94555.84;5113109;28;20345;-65
2022/01/10 00:59:00;;;;;;;4.77;3.13;;;;;;;1.60;100.00;94557.34;5113603;28;20649;-65
2022/01/10 01:01:25;;;;;;;5.70;3.37;;;;;;;1.59;100.00;94556.56;5096012;28;20172;-65
2022/01/10 01:03:51;;;;;;;6.20;3.00;;;;;;;1.60;100.00;94558.09;5096491;28;20195;-65
2022/01/10 01:06:16;;;;;;;5.53;3.07;;;;;;;1.61;100.00;94566.97;5113334;28;20564;-64
2022/01/10 01:08:43;;;;;;;4.40;3.00;;;;;;;1.61;100.00;94559.66;5096041;28;20207;-64
2022/01/10 01:13:49;;;;;;;4.83;3.10;;;;;;;1.62;100.00;94582.72;5096540;28;20215;-63
2022/01/10 01:16:19;;;;;;;5.37;3.97;;;;;;;1.63;100.00;94575.41;5113037;28;20196;-63
2022/01/10 01:24:03;;;;;;;5.87;3.60;;;;;;;1.59;100.00;94594.22;5097021;28;20211;-64
2022/01/10 01:26:31;;;;;;;5.10;3.37;;;;;;;1.63;100.00;94599.63;5096186;28;20687;-69
2022/01/10 01:28:57;;;;;;;4.60;3.37;;;;;;;1.60;100.00;94606.53;5112810;28;20199;-67
2022/01/10 01:31:22;;;;;;;4.10;3.30;;;;;;;1.63;100.00;94610.38;5112980;28;20195;-67
2022/01/10 01:33:47;;;;;;;7.23;3.20;;;;;;;1.64;100.00;94614.66;5095430;28;20337;-67
2022/01/10 01:36:16;;;;;;;4.50;3.53;;;;;;;1.64;100.00;94612.72;5095844;28;20211;-67
2022/01/10 01:38:41;;;;;;;3.53;2.80;;;;;;;1.68;100.00;94618.91;5112364;28;20218;-67
2022/01/10 01:41:35;;;;;;;5.27;3.37;;;;;;;1.67;100.00;94620.06;5095490;28;20197;-66
2022/01/10 01:44:02;;;;;;;5.10;3.63;;;;;;;1.68;100.00;94624.28;5095909;28;20285;-68
2022/01/10 01:46:27;;;;;;;5.70;3.57;;;;;;;1.69;100.00;94628.56;5095920;28;20172;-63
2022/01/10 01:48:54;;;;;;;6.27;3.93;;;;;;;1.69;100.00;94628.56;5078548;28;20211;-67
2022/01/10 01:51:20;;;;;;;4.87;3.13;;;;;;;1.66;100.00;94626.59;5095204;28;20209;-67
2022/01/10 01:53:46;;;;;;;4.97;3.10;;;;;;;1.64;100.00;94631.56;5112041;28;20212;-68
2022/01/10 01:56:13;;;;;;;5.63;3.43;;;;;;;1.63;100.00;94631.91;5095064;28;20265;-68
2022/01/10 01:58:41;;;;;;;4.17;3.20;;;;;;;1.60;100.00;94624.59;5094871;28;20275;-67
2022/01/10 02:01:07;;;;;;;3.33;2.80;;;;;;;1.59;100.00;94637.25;5095053;28;20206;-67
2022/01/10 02:03:37;;;;;;;4.80;3.17;;;;;;;1.56;100.00;94631.84;5095249;28;20192;-70
2022/01/10 02:06:03;;;;;;;5.50;3.20;;;;;;;1.53;100.00;94632.56;5112337;28;20192;-68
2022/01/10 02:08:28;;;;;;;3.97;2.90;;;;;;;1.52;100.00;94631.78;5095609;28;20237;-63
2022/01/10 02:10:54;;;;;;;5.40;3.00;;;;;;;1.52;100.00;94647.91;5095335;28;20215;-63
2022/01/10 02:13:19;;;;;;;3.47;2.90;;;;;;;1.50;100.00;94650.22;5095375;28;20210;-63
2022/01/10 02:15:51;;;;;;;4.43;2.87;;;;;;;1.50;100.00;94655.59;5112408;28;20243;-63
2022/01/10 02:18:18;;;;;;;4.37;2.77;;;;;;;1.49;100.00;94659.41;5095302;28;20208;-63
2022/01/10 02:20:45;;;;;;;4.63;3.20;;;;;;;1.48;100.00;94663.25;5095086;28;20282;-64
2022/01/10 02:23:11;;;;;;;4.77;3.20;;;;;;;1.48;100.00;94663.25;5094822;28;20231;-68
2022/01/10 02:25:36;;;;;;;6.63;3.93;;;;;;;1.48;100.00;94673.22;5094837;28;20605;-70
2022/01/10 02:28:02;;;;;;;5.70;3.90;;;;;;;1.47;100.00;94677.84;5111794;28;20234;-71
2022/01/10 02:30:27;;;;;;;7.63;4.67;;;;;;;1.46;100.00;94670.88;5111587;28;20256;-70
2022/01/10 02:32:57;;;;;;;5.73;3.47;;;;;;;1.48;100.00;94668.63;5094576;28;20204;-69
2022/01/10 02:35:27;;;;;;;6.87;4.87;;;;;;;1.48;100.00;94679.38;5095142;28;20195;-71
2022/01/10 02:37:55;;;;;;;10.67;6.60;;;;;;;1.48;100.00;94679.38;5095312;28;20333;-70
2022/01/10 02:40:24;;;;;;;12.40;7.47;;;;;;;1.49;100.00;94675.53;5095184;28;20180;-63
2022/01/10 02:42:51;;;;;;;5.63;4.47;;;;;;;1.49;100.00;94680.16;5095239;28;20208;-62
2022/01/10 02:45:17;;;;;;;7.67;4.60;;;;;;;1.48;100.00;94690.13;5077875;28;20250;-63
2022/01/10 02:47:43;;;;;;;8.20;5.20;;;;;;;1.47;100.00;94693.97;5111167;28;20212;-64
2022/01/10 02:50:09;;;;;;;7.20;4.47;;;;;;;1.47;100.00;94688.59;5095266;28;20214;-63
2022/01/10 02:52:35;;;;;;;4.83;3.40;;;;;;;1.47;100.00;94696.66;5094274;28;20290;-63
2022/01/10 02:55:01;;;;;;;4.20;2.63;;;;;;;1.47;100.00;94698.56;5094126;28;20227;-63
2022/01/10 02:57:31;;;;;;;4.07;2.73;;;;;;;1.45;100.00;94701.59;5094143;28;20192;-62
2022/01/10 02:59:58;;;;;;;4.20;2.63;;;;;;;1.45;100.00;94707.00;5094170;28;20660;-71
2022/01/10 03:02:28;;;;;;;3.80;2.50;;;;;;;1.46;100.00;94707.78;5111440;28;20199;-68
2022/01/10 03:04:53;;;;;;;4.23;2.83;;;;;;;1.45;100.00;94712.38;5094468;28;20275;-67
2022/01/10 03:07:22;;;;;;;4.03;2.87;;;;;;;1.45;100.00;94707.00;5110946;28;20194;-68
2022/01/10 03:09:48;;;;;;;3.70;2.50;;;;;;;1.45;100.00;94712.38;5110708;28;20213;-67
2022/01/10 03:12:13;;;;;;;5.00;2.63;;;;;;;1.45;100.00;94711.63;5111316;28;20199;-67
2022/01/10 03:14:38;;;;;;;8.60;6.20;;;;;;;1.46;100.00;94724.66;5110688;28;20232;-68
2022/01/10 03:17:04;;;;;;;8.73;5.63;;;;;;;1.47;100.00;94714.69;5110848;28;20206;-69
2022/01/10 03:19:29;;;;;;;5.50;3.30;;;;;;;1.48;100.00;94724.31;5110884;28;20207;-63
2022/01/10 03:21:55;;;;;;;5.60;3.17;;;;;;;1.47;100.00;94720.88;5111340;28;20588;-67
2022/01/10 03:24:20;;;;;;;6.63;2.63;;;;;;;1.47;100.00;94730.84;5110959;28;20212;-67
2022/01/10 03:26:45;;;;;;;3.50;2.97;;;;;;;1.46;100.00;94740.06;5110673;28;20191;-68
2022/01/10 03:29:11;;;;;;;3.90;3.00;;;;;;;1.46;100.00;94740.06;5110119;28;20204;-67
2022/01/10 03:31:37;;;;;;;7.63;4.47;;;;;;;1.45;100.00;94743.88;5110854;28;20192;-67
2022/01/10 03:34:05;;;;;;;5.27;3.53;;;;;;;1.45;100.00;94739.25;5110839;28;20199;-68
2022/01/10 03:36:31;;;;;;;6.03;3.67;;;;;;;1.47;100.00;94747.75;5093797;28;20196;-67
2022/01/10 03:38:56;;;;;;;6.03;3.43;;;;;;;1.49;100.00;94745.47;5110640;28;20187;-65
2022/01/10 03:41:21;;;;;;;4.07;3.03;;;;;;;1.52;100.00;94750.13;5093832;28;20200;-65
2022/01/10 03:43:47;;;;;;;6.00;3.33;;;;;;;1.53;100.00;94751.69;5110177;28;20203;-65
2022/01/10 03:46:12;;;;;;;5.80;3.80;;;;;;;1.57;100.00;94755.19;5110183;28;20204;-65
2022/01/10 03:48:38;;;;;;;5.60;3.63;;;;;;;1.57;100.00;94752.50;5110364;28;20199;-65
2022/01/10 03:51:03;;;;;;;6.70;4.07;;;;;;;1.59;100.00;94754.84;5093512;28;20303;-65
2022/01/10 03:53:29;;;;;;;5.57;3.90;;;;;;;1.61;100.00;94763.34;5110102;28;20188;-63
2022/01/10 03:55:54;;;;;;;5.10;3.87;;;;;;;1.62;100.00;94754.91;5110524;28;20199;-63
2022/01/10 03:58:20;;;;;;;7.33;3.87;;;;;;;1.61;100.00;94753.34;5093572;28;20222;-63
2022/01/10 04:00:45;;;;;;;6.13;4.23;;;;;;;1.61;100.00;94757.94;5110576;28;20227;-63
2022/01/10 04:03:10;;;;;;;6.13;4.20;;;;;;;1.64;100.00;94758.00;5110734;28;20218;-63
2022/01/10 04:05:36;;;;;;;8.40;4.40;;;;;;;1.64;100.00;94760.69;5110856;28;20196;-63
2022/01/10 04:08:02;;;;;;;6.90;4.30;;;;;;;1.69;100.00;94768.47;5110012;28;20196;-63
2022/01/10 04:10:27;;;;;;;8.17;4.50;;;;;;;1.70;100.00;94761.94;5093631;28;20210;-63
2022/01/10 04:12:53;;;;;;;8.73;4.63;;;;;;;1.71;100.00;94771.56;5110338;28;20204;-73
2022/01/10 04:15:18;;;;;;;7.77;4.70;;;;;;;1.73;100.00;94781.94;5110091;28;20235;-67
2022/01/10 04:17:44;;;;;;;6.03;4.50;;;;;;;1.75;100.00;94783.13;5110285;28;20240;-67
2022/01/10 04:20:09;;;;;;;7.77;4.60;;;;;;;1.74;100.00;94789.66;5110047;28;20219;-67
2022/01/10 04:22:35;;;;;;;8.90;4.50;;;;;;;1.76;100.00;94786.63;5092819;28;20204;-67
2022/01/10 04:25:00;;;;;;;6.93;4.40;;;;;;;1.75;100.00;94785.84;5092779;28;20207;-67
2022/01/10 04:27:26;;;;;;;7.87;4.80;;;;;;;1.77;100.00;94790.84;5108674;28;20189;-67
2022/01/10 04:29:52;;;;;;;7.40;4.90;;;;;;;1.78;100.00;94795.88;5109856;28;20218;-66
2022/01/10 04:32:17;;;;;;;5.37;4.33;;;;;;;1.79;100.00;94796.66;5110205;28;20193;-63
2022/01/10 04:34:44;;;;;;;8.57;4.50;;;;;;;1.80;100.00;94799.00;5110464;28;20208;-63
2022/01/10 04:37:09;;;;;;;6.50;4.67;;;;;;;1.82;100.00;94802.09;5092988;28;20215;-62
2022/01/10 04:39:35;;;;;;;6.47;4.70;;;;;;;1.84;100.00;94810.59;5109809;28;20203;-63
2022/01/10 04:42:00;;;;;;;10.23;5.23;;;;;;;1.87;100.00;94804.50;5109459;28;20180;-63
2022/01/10 04:44:26;;;;;;;9.97;5.37;;;;;;;1.89;100.00;94810.25;5092998;28;20199;-63
2022/01/10 04:46:51;;;;;;;7.60;4.70;;;;;;;1.91;100.00;94813.38;5109223;28;20207;-63
2022/01/10 04:52:30;;;;;;;6.80;4.60;;;;;;;1.97;100.00;94825.38;5077091;28;20214;-70
2022/01/10 04:54:56;;;;;;;7.63;5.03;;;;;;;2.00;100.00;94832.72;5092756;28;20180;-70
2022/01/10 04:57:22;;;;;;;5.07;4.20;;;;;;;2.01;100.00;94842.34;5109682;28;20186;-70
2022/01/10 04:59:48;;;;;;;7.57;5.53;;;;;;;2.04;100.00;94838.19;5109567;28;20189;-69
2022/01/10 05:02:13;;;;;;;6.10;4.37;;;;;;;2.03;100.00;94839.31;5109638;28;20358;-70
2022/01/10 05:04:38;;;;;;;7.47;5.03;;;;;;;2.06;100.00;94843.97;5109522;28;20301;-71
2022/01/10 05:07:04;;;;;;;8.17;4.87;;;;;;;2.07;100.00;94850.91;5109141;28;20193;-69
2022/01/10 05:09:29;;;;;;;8.13;5.17;;;;;;;2.07;100.00;94851.69;5109260;28;20212;-67
2022/01/10 05:11:55;;;;;;;8.13;4.83;;;;;;;2.08;100.00;94858.63;5109290;28;20204;-66
2022/01/10 05:14:20;;;;;;;8.90;5.37;;;;;;;2.08;100.00;94850.53;5092181;28;20192;-65
2022/01/10 05:16:46;;;;;;;8.97;5.03;;;;;;;2.10;100.00;94861.72;5092509;28;20254;-65
2022/01/10 05:19:14;;;;;;;6.73;4.93;;;;;;;2.11;100.00;94863.28;5091848;28;20200;-64
2022/01/10 05:21:40;;;;;;;7.77;5.30;;;;;;;2.12;100.00;94866.75;5092140;28;20283;-64
2022/01/10 05:24:05;;;;;;;16.17;9.67;;;;;;;2.14;100.00;94867.94;5092129;28;20200;-65
2022/01/10 05:26:31;;;;;;;11.67;6.20;;;;;;;2.16;100.00;94873.75;5109486;28;20192;-66
2022/01/10 05:28:56;;;;;;;9.90;5.97;;;;;;;2.16;100.00;94865.69;5093581;28;20527;-64
2022/01/10 05:31:22;;;;;;;8.37;5.63;;;;;;;2.17;100.00;94872.59;5109229;28;20208;-64
2022/01/10 05:33:48;;;;;;;8.87;5.57;;;;;;;2.18;100.00;94873.38;5091961;28;20176;-64
2022/01/10 05:36:14;;;;;;;7.80;5.90;;;;;;;2.18;100.00;94882.22;5092271;28;20610;-64
2022/01/10 05:38:39;;;;;;;9.27;5.77;;;;;;;2.18;100.00;94884.94;5094248;28;20295;-64
2022/01/10 05:41:05;;;;;;;9.73;6.07;;;;;;;2.21;100.00;94889.59;5095071;28;20196;-64
2022/01/10 05:43:30;;;;;;;9.40;5.40;;;;;;;2.20;100.00;94887.25;5095523;28;20245;-64
2022/01/10 05:45:56;;;;;;;7.50;4.80;;;;;;;2.19;100.00;94896.50;5112439;28;20196;-68
2022/01/10 05:48:25;;;;;;;7.57;5.23;;;;;;;2.21;100.00;94905.75;5095175;28;20196;-65
2022/01/10 05:50:52;;;;;;;8.63;5.47;;;;;;;2.23;100.00;94900.75;5096651;28;20208;-64
2022/01/10 05:53:17;;;;;;;8.07;5.00;;;;;;;2.22;100.00;94910.00;5095293;28;20184;-65
2022/01/10 05:55:43;;;;;;;13.43;8.47;;;;;;;2.23;100.00;94908.84;5112211;28;20196;-63
2022/01/10 05:58:09;;;;;;;15.70;9.63;;;;;;;2.24;100.00;94915.81;5112282;28;20199;-64
2022/01/10 06:00:35;;;;;;;11.27;6.03;;;;;;;2.23;100.00;94919.63;5094801;28;20282;-65
2022/01/10 06:03:02;;;;;;;9.87;6.40;;;;;;;2.25;100.00;94920.03;5095600;28;20181;-67
2022/01/10 06:05:31;;;;;;;10.57;6.20;;;;;;;2.25;100.00;94930.81;5094906;28;20231;-66
2022/01/10 06:08:02;;;;;;;9.67;6.40;;;;;;;2.24;100.00;94939.25;5095397;28;20195;-65
2022/01/10 06:10:28;;;;;;;9.23;6.63;;;;;;;2.24;100.00;94937.34;5112063;28;20212;-67
2022/01/10 06:12:55;;;;;;;13.53;7.03;;;;;;;2.26;100.00;94951.22;5094641;28;20192;-67
2022/01/10 06:15:20;;;;;;;10.40;6.73;;;;;;;2.27;100.00;94946.63;5094834;28;20291;-66
2022/01/10 06:17:45;;;;;;;12.83;6.87;;;;;;;2.28;100.00;94959.72;5094770;28;20246;-66
2022/01/10 06:20:11;;;;;;;10.13;6.33;;;;;;;2.29;100.00;94955.88;5111618;28;20192;-64
2022/01/10 06:22:37;;;;;;;12.77;7.23;;;;;;;2.31;100.00;94967.09;5111627;28;20192;-70
2022/01/10 06:25:03;;;;;;;8.23;6.43;;;;;;;2.28;100.00;94965.13;5111941;28;20546;-70
2022/01/10 06:27:29;;;;;;;10.67;7.23;;;;;;;2.28;100.00;94970.50;5094603;28;20227;-72
2022/01/10 06:29:54;;;;;;;14.60;9.33;;;;;;;2.30;100.00;94970.91;5111316;28;20252;-74
2022/01/10 06:32:20;;;;;;;10.67;7.73;;;;;;;2.31;100.00;94983.25;5111237;28;20204;-75
2022/01/10 06:34:45;;;;;;;11.13;7.47;;;;;;;2.27;100.00;94979.72;5094156;28;20208;-74
2022/01/10 06:37:10;;;;;;;14.47;9.70;;;;;;;2.31;100.00;94982.47;5094826;28;20204;-77
2022/01/10 06:39:36;;;;;;;11.43;7.67;;;;;;;2.29;100.00;94985.50;5094024;28;20193;-72
2022/01/10 06:42:01;;;;;;;12.63;7.53;;;;;;;2.26;100.00;94993.56;5094135;28;20203;-69
2022/01/10 06:44:26;;;;;;;14.13;8.40;;;;;;;2.26;100.00;94997.00;5111420;28;20203;-77
2022/01/10 06:46:53;;;;;;;38.10;21.70;;;;;;;2.26;100.00;94999.69;5094557;28;20204;-75
2022/01/10 06:49:18;;;;;;;13.67;7.87;;;;;;;2.26;100.00;95010.47;5093476;28;20196;-71
2022/01/10 06:51:44;;;;;;;11.13;7.80;;;;;;;2.30;100.00;95008.59;5094011;28;20319;-75
2022/01/10 06:54:09;;;;;;;12.10;7.60;;;;;;;2.29;100.00;95015.13;5111529;28;20203;-74
2022/01/10 06:56:34;;;;;;;12.33;8.40;;;;;;;2.25;100.00;95025.06;5094263;28;20289;-74
2022/01/10 06:59:00;;;;;;;14.07;8.57;;;;;;;2.31;100.00;95031.72;5111393;28;20191;-65
2022/01/10 07:01:25;;;;;;;13.83;8.67;;;;;;;2.30;100.00;95027.47;5093809;28;20218;-71
2022/01/10 07:03:53;;;;;;;13.77;8.80;;;;;;;2.28;100.00;95037.03;5111474;28;20200;-70
2022/01/10 07:06:19;;;;;;;14.40;8.83;;;;;;;2.27;100.00;95044.38;5111708;28;20191;-70
2022/01/10 07:08:45;;;;;;;15.70;9.77;;;;;;;2.25;100.00;95046.63;5093960;28;20212;-70
2022/01/10 07:11:10;;;;;;;16.93;10.17;;;;;;;2.25;100.00;95049.31;5110697;28;20200;-70
2022/01/10 07:13:35;;;;;;;17.87;9.60;;;;;;;2.27;100.00;95055.13;5110599;28;20212;-70
2022/01/10 07:16:01;;;;;;;15.20;9.47;;;;;;;2.29;100.00;95052.84;5110483;28;20188;-62
2022/01/10 07:18:26;;;;;;;13.63;9.40;;;;;;;2.26;100.00;95064.34;5093848;28;20196;-74
2022/01/10 07:20:52;;;;;;;14.70;9.03;;;;;;;2.24;100.00;95066.63;5094212;28;20197;-73
2022/01/10 07:23:17;;;;;;;22.47;15.33;;;;;;;2.25;100.00;95068.16;5093616;28;20196;-73
2022/01/10 07:25:43;;;;;;;25.60;15.50;;;;;;;2.25;100.00;95070.88;5110673;28;20200;-71
2022/01/10 07:28:08;;;;;;;16.63;11.03;;;;;;;2.26;100.00;95075.09;5110457;28;20236;-76
2022/01/10 07:30:33;;;;;;;17.03;10.53;;;;;;;2.28;100.00;95078.22;5110682;28;20294;-73
2022/01/10 07:32:59;;;;;;;15.03;10.00;;;;;;;2.28;100.00;95089.00;5094177;28;20172;-74
2022/01/10 07:35:24;;;;;;;15.57;9.07;;;;;;;2.31;100.00;95096.38;5110745;28;20265;-67
2022/01/10 07:37:49;;;;;;;17.90;11.83;;;;;;;2.25;100.00;95088.94;5110984;28;20204;-72
2022/01/10 07:40:15;;;;;;;28.27;17.33;;;;;;;2.30;100.00;95102.13;5093786;28;20207;-73
2022/01/10 07:42:40;;;;;;;23.13;14.17;;;;;;;2.30;100.00;95097.50;5094191;28;20192;-72
2022/01/10 07:45:06;;;;;;;18.00;10.10;;;;;;;2.30;100.00;95115.59;5110632;28;20252;-72
2022/01/10 07:47:32;;;;;;;15.37;10.77;;;;;;;2.31;100.00;95107.16;5110373;28;20234;-72
2022/01/10 07:49:58;;;;;;;14.37;10.00;;;;;;;2.35;100.00;95121.47;5110701;28;20211;-73
2022/01/10 07:52:25;;;;;;;15.93;9.97;;;;;;;2.39;100.00;95127.69;5110707;28;20192;-74
2022/01/10 07:54:50;;;;;;;16.73;11.10;;;;;;;2.35;100.00;95126.06;5092827;28;20196;-67
2022/01/10 07:57:16;;;;;;;15.77;9.53;;;;;;;2.26;100.00;95139.75;5110452;28;20192;-67
2022/01/10 07:59:42;;;;;;;14.30;10.17;;;;;;;2.19;100.00;95133.47;5109967;28;20283;-67
2022/01/10 08:02:08;;;;;;;16.67;10.30;;;;;;;2.30;100.00;95135.19;5110151;28;20283;-69
2022/01/10 08:04:34;;;;;;;17.10;10.27;;;;;;;2.36;100.00;95141.88;5110944;28;20180;-68
2022/01/10 08:07:00;;;;;;;16.30;9.50;;;;;;;2.40;100.00;95136.53;5110645;28;20192;-70
2022/01/10 08:09:25;;;;;;;18.13;11.10;;;;;;;2.41;100.00;95146.94;5110585;28;20203;-68
2022/01/10 08:11:50;;;;;;;24.77;15.17;;;;;;;2.47;100.00;95145.53;5109897;28;20226;-65
2022/01/10 08:14:16;;;;;;;20.53;12.27;;;;;;;2.54;100.00;95151.03;5109796;28;20286;-67
2022/01/10 08:16:41;;;;;;;20.90;11.63;;;;;;;2.54;100.00;95147.56;5109944;28;20218;-66
2022/01/10 08:19:06;;;;;;;21.60;12.37;;;;;;;2.56;100.00;95159.56;5109942;28;20219;-66
2022/01/10 08:21:32;;;;;;;16.37;9.60;;;;;;;2.57;100.00;95166.50;5109292;28;20200;-66
2022/01/10 08:24:17;;;;;;;16.07;10.40;;;;;;;2.57;100.00;95171.09;5092745;28;20228;-65
2022/01/10 08:26:43;;;;;;;16.63;9.53;;;;;;;2.58;100.00;95173.44;5051105;28;20319;-65
2022/01/10 08:29:08;;;;;;;14.63;9.60;;;;;;;2.60;100.00;95176.56;5034842;28;20312;-66
2022/01/10 08:31:34;;;;;;;16.60;9.80;;;;;;;2.60;100.00;95181.97;5035336;28;20225;-74
2022/01/10 08:34:01;;;;;;;17.40;10.03;;;;;;;2.59;100.00;95185.00;5051901;28;20678;-68
2022/01/10 08:36:28;;;;;;;13.70;9.80;;;;;;;2.62;100.00;95190.47;5035179;28;20210;-68
2022/01/10 08:38:54;;;;;;;17.70;9.90;;;;;;;2.64;100.00;95190.09;5035197;28;20201;-68
2022/01/10 08:41:19;;;;;;;14.63;9.30;;;;;;;2.62;100.00;95190.47;5034785;28;20300;-69
2022/01/10 08:43:45;;;;;;;16.47;9.67;;;;;;;2.64;100.00;95192.78;5034736;28;20393;-69
2022/01/10 08:46:10;;;;;;;15.43;9.23;;;;;;;2.61;100.00;95207.78;5034466;28;20582;-70
2022/01/10 08:48:35;;;;;;;14.53;8.70;;;;;;;2.62;100.00;95211.25;5035160;28;20201;-76
2022/01/10 08:51:01;;;;;;;13.90;9.50;;;;;;;2.58;100.00;95213.88;5034620;28;20225;-68
2022/01/10 08:53:26;;;;;;;12.77;7.97;;;;;;;2.55;100.00;95222.66;5035088;28;20205;-69
2022/01/10 08:55:52;;;;;;;13.93;8.60;;;;;;;2.50;100.00;95220.25;5034986;28;20638;-72
2022/01/10 08:58:18;;;;;;;25.07;16.33;;;;;;;2.56;100.00;95220.75;5081469;28;20707;-68
2022/01/10 09:00:44;;;;;;;16.67;10.53;;;;;;;2.55;100.00;95227.28;5091332;28;20208;-68
2022/01/10 09:03:09;;;;;;;15.37;9.70;;;;;;;2.62;100.00;95238.97;5075007;28;20216;-68
2022/01/10 09:05:35;;;;;;;17.03;10.27;;;;;;;2.60;100.00;95243.94;5074428;28;20200;-66
2022/01/10 09:08:02;;;;;;;17.20;10.00;;;;;;;2.64;100.00;95242.09;5091528;28;20274;-66
2022/01/10 09:10:29;;;;;;;16.67;9.87;;;;;;;2.63;100.00;95248.59;5074316;28;20212;-66
2022/01/10 09:12:54;;;;;;;20.27;12.13;;;;;;;2.74;100.00;95257.66;5091845;28;20219;-67
2022/01/10 09:15:20;;;;;;;17.73;10.93;;;;;;;2.78;100.00;95260.44;5077955;28;20200;-68
2022/01/10 09:17:45;;;;;;;16.97;9.87;;;;;;;2.76;100.00;95266.19;5094597;28;20200;-67
2022/01/10 09:20:11;;;;;;;18.73;11.00;;;;;;;2.80;100.00;95271.63;5077851;28;20235;-68
2022/01/10 09:22:37;;;;;;;19.37;12.53;;;;;;;2.89;100.00;95264.13;5077803;28;20480;-62
2022/01/10 09:25:03;;;;;;;17.53;11.20;;;;;;;2.94;100.00;95267.31;5078107;28;20628;-71
2022/01/10 09:27:29;;;;;;;19.57;12.00;;;;;;;3.05;100.00;95270.19;5094532;28;20188;-72
2022/01/10 09:29:54;;;;;;;17.53;11.47;;;;;;;3.06;100.00;95269.84;5090524;28;20674;-75
2022/01/10 09:32:19;;;;;;;18.97;12.40;;;;;;;3.08;100.00;95283.75;5111875;28;20172;-71
2022/01/10 09:34:45;;;;;;;21.87;13.27;;;;;;;3.04;100.00;95285.59;5111929;28;20207;-73
2022/01/10 09:37:10;;;;;;;19.57;11.60;;;;;;;2.98;100.00;95294.31;5112545;28;20223;-69
2022/01/10 09:39:36;;;;;;;16.73;10.50;;;;;;;2.93;100.00;95298.13;5095120;28;20201;-69
2022/01/10 09:42:02;;;;;;;17.20;10.70;;;;;;;2.91;100.00;95300.38;5112891;28;20234;-69
2022/01/10 09:44:28;;;;;;;20.63;11.13;;;;;;;2.95;100.00;95306.59;5112082;28;20301;-61
2022/01/10 09:46:53;;;;;;;16.70;10.10;;;;;;;2.78;100.00;95311.66;5112175;28;20188;-64
2022/01/10 09:49:19;;;;;;;18.27;10.73;;;;;;;2.84;100.00;95311.03;5112274;28;20203;-62
2022/01/10 09:51:44;;;;;;;15.90;9.90;;;;;;;2.82;100.00;95313.31;5112027;28;20184;-61
2022/01/10 09:54:11;;;;;;;14.83;9.33;;;;;;;2.73;100.00;95320.81;5095180;28;20224;-64
2022/01/10 09:56:37;;;;;;;14.70;9.63;;;;;;;2.64;100.00;95320.25;5095111;28;20199;-63
2022/01/10 09:59:03;;;;;;;17.03;10.03;;;;;;;2.62;100.00;95330.59;5095400;28;20220;-62
2022/01/10 10:01:30;;;;;;;15.23;9.83;;;;;;;2.58;100.00;95329.75;5095366;28;20204;-64
2022/01/10 10:03:59;;;;;;;17.33;10.47;;;;;;;2.50;100.00;95328.03;5095452;28;20232;-70
2022/01/10 10:06:28;;;;;;;14.97;10.53;;;;;;;2.47;100.00;95322.56;5112309;28;20291;-73
2022/01/10 10:09:00;;;;;;;16.13;10.63;;;;;;;2.68;100.00;95333.78;5112213;28;20283;-71
2022/01/10 10:11:49;;;;;;;17.13;10.83;;;;;;;3.03;100.00;95327.16;5095564;28;20225;-75
2022/01/10 10:14:20;;;;;;;20.73;10.73;;;;;;;3.31;100.00;95330.41;5111893;28;20291;-75
2022/01/10 10:16:50;;;;;;;15.87;9.87;;;;;;;3.65;100.00;95319.81;5112186;28;20206;-75
2022/01/10 10:19:18;;;;;;;12.60;9.00;;;;;;;3.75;100.00;95327.31;5112106;28;20208;-64
2022/01/10 10:21:43;;;;;;;15.87;8.87;;;;;;;3.90;100.00;95334.50;5111471;28;20226;-61
2022/01/10 10:24:09;;;;;;;14.90;9.30;;;;;;;4.08;100.00;95340.94;5112188;28;20173;-64
2022/01/10 10:26:34;;;;;;;16.03;10.30;;;;;;;4.22;100.00;95344.63;5112016;28;20224;-66
2022/01/10 10:29:00;;;;;;;13.17;9.60;;;;;;;4.40;100.00;95353.03;5111460;28;20223;-66
2022/01/10 10:31:42;;;;;;;14.43;9.93;;;;;;;4.54;100.00;95355.91;5094065;28;20247;-65
2022/01/10 10:34:07;;;;;;;19.07;11.20;;;;;;;4.73;100.00;95355.78;5094596;28;20196;-66
2022/01/10 10:36:35;;;;;;;17.70;10.90;;;;;;;4.68;100.00;95366.91;5111307;28;20227;-66
2022/01/10 10:39:07;;;;;;;15.63;9.77;;;;;;;4.60;100.00;95365.25;5111769;28;20206;-71
2022/01/10 10:41:33;;;;;;;14.57;9.33;;;;;;;4.40;100.00;95374.66;5111238;28;20287;-70
2022/01/10 10:43:59;;;;;;;13.50;9.20;;;;;;;4.28;100.00;95372.13;5094411;28;20206;-68
2022/01/10 10:46:27;;;;;;;18.97;10.83;;;;;;;4.23;100.00;95375.16;5111378;28;20291;-68
2022/01/10 10:48:57;;;;;;;17.63;10.13;;;;;;;4.00;100.00;95383.25;5095245;28;20177;-69
2022/01/10 10:51:27;;;;;;;14.07;9.37;;;;;;;3.93;100.00;95385.09;5111453;28;20222;-70
2022/01/10 10:53:55;;;;;;;14.67;9.93;;;;;;;3.81;100.00;95385.25;5094421;28;20693;-68
2022/01/10 10:56:20;;;;;;;15.13;10.10;;;;;;;3.60;100.00;95395.69;5093982;28;20196;-75
2022/01/10 10:58:46;;;;;;;17.70;10.00;;;;;;;3.44;100.00;95393.88;5111076;28;20201;-68
2022/01/10 11:01:11;;;;;;;14.73;9.33;;;;;;;3.14;100.00;95395.59;5111284;28;20584;-68
2022/01/10 11:03:37;;;;;;;17.57;9.40;;;;;;;3.17;100.00;95400.28;5093923;28;20199;-68
2022/01/10 11:06:04;;;;;;;14.83;8.60;;;;;;;3.02;100.00;95403.03;5111154;28;20200;-67
2022/01/10 11:08:32;;;;;;;15.33;9.60;;;;;;;3.05;100.00;95408.53;5094141;28;20235;-67
2022/01/10 11:10:59;;;;;;;13.63;8.43;;;;;;;3.05;100.00;95413.91;5110737;28;20257;-67
2022/01/10 11:13:27;;;;;;;15.20;8.97;;;;;;;3.05;100.00;95411.22;5094234;28;20211;-67
2022/01/10 11:15:53;;;;;;;14.23;9.70;;;;;;;2.99;100.00;95417.25;5110914;28;20271;-64
2022/01/10 11:18:20;;;;;;;13.70;9.80;;;;;;;3.00;100.00;95422.28;5110661;28;20284;-69
2022/01/10 11:20:49;;;;;;;13.83;10.03;;;;;;;2.97;100.00;95420.31;5094072;28;20200;-69
2022/01/10 11:23:15;;;;;;;15.90;10.20;;;;;;;2.97;100.00;95425.69;5110562;28;20200;-68
2022/01/10 11:25:42;;;;;;;15.93;10.67;;;;;;;2.93;100.00;95427.53;5110580;28;20200;-75
2022/01/10 11:28:20;;;;;;;21.17;11.57;;;;;;;2.93;100.00;95427.53;5110475;28;20207;-76
2022/01/10 11:30:46;;;;;;;21.93;13.27;;;;;;;2.98;100.00;95439.94;5094834;28;20215;-74
2022/01/10 11:33:15;;;;;;;21.80;13.90;;;;;;;3.02;100.00;95433.50;5110562;28;20196;-62